createdAt,value
2023-01-22T00:00:09.136Z,99.99
2023-01-22T00:01:09.180Z,99.99
2023-01-22T00:02:09.203Z,99.99
2023-01-22T00:03:09.067Z,99.99
2023-01-22T00:04:09.045Z,99.99
2023-01-22T00:05:09.722Z,99.99
2023-01-22T00:06:09.028Z,99.99
2023-01-22T00:07:09.028Z,99.99
2023-01-22T00:08:09.034Z,99.99
2023-01-22T00:09:09.030Z,99.99
2023-01-22T00:10:08.979Z,99.99
2023-01-22T00:11:08.998Z,99.99
2023-01-22T00:12:08.960Z,99.99
2023-01-22T00:13:09.010Z,99.85
2023-01-22T00:14:09.038Z,99.96
2023-01-22T00:15:08.990Z,99.85
2023-01-22T00:16:08.987Z,99.99
2023-01-22T00:17:08.915Z,99.99
2023-01-22T00:18:08.924Z,99.99
2023-01-22T00:19:08.892Z,99.99
2023-01-22T00:20:08.899Z,99.96
2023-01-22T00:21:08.899Z,99.99
2023-01-22T00:22:08.857Z,99.99
2023-01-22T00:23:08.860Z,99.99
2023-01-22T00:24:08.861Z,99.85
2023-01-22T00:25:08.837Z,99.96
2023-01-22T00:26:08.808Z,99.99
2023-01-22T00:27:08.818Z,99.99
2023-01-22T00:28:08.807Z,99.99
2023-01-22T00:29:08.820Z,99.99
2023-01-22T00:30:08.773Z,99.99
2023-01-22T00:31:08.902Z,99.99
2023-01-22T00:32:08.895Z,99.99
2023-01-22T00:33:08.770Z,99.85
2023-01-22T00:34:08.733Z,99.99
2023-01-22T00:35:08.707Z,99.99
2023-01-22T00:36:08.717Z,99.99
2023-01-22T00:37:08.706Z,99.99
2023-01-22T00:38:08.674Z,99.99
2023-01-22T00:39:08.683Z,99.99
2023-01-22T00:40:08.669Z,99.99
2023-01-22T00:41:08.708Z,99.99
2023-01-22T00:42:08.643Z,99.99
2023-01-22T00:43:08.624Z,99.99
2023-01-22T00:44:08.623Z,99.99
2023-01-22T00:45:08.626Z,99.99
2023-01-22T00:46:08.654Z,99.99
2023-01-22T00:47:08.608Z,99.99
2023-01-22T00:48:08.578Z,99.99
2023-01-22T00:49:08.555Z,99.99
2023-01-22T00:50:08.568Z,99.99
2023-01-22T00:51:08.622Z,99.99
2023-01-22T00:52:08.549Z,99.99
2023-01-22T00:53:08.520Z,99.91
2023-01-22T00:54:08.520Z,99.99
2023-01-22T00:55:08.494Z,99.80
2023-01-22T00:56:08.477Z,99.91
2023-01-22T00:57:08.516Z,99.91
2023-01-22T00:58:08.460Z,99.60
2023-01-22T00:59:08.458Z,99.49
2023-01-22T01:00:08.456Z,99.70
2023-01-22T01:01:08.500Z,99.60
2023-01-22T01:02:08.559Z,99.49
2023-01-22T01:03:08.456Z,99.60
2023-01-22T01:04:08.420Z,99.99
2023-01-22T01:05:08.386Z,99.91
2023-01-22T01:06:08.369Z,99.87
2023-01-22T01:07:08.357Z,99.91
2023-01-22T01:08:08.362Z,99.70
2023-01-22T01:09:08.379Z,99.70
2023-01-22T01:10:08.337Z,99.28
2023-01-22T01:11:08.324Z,99.38
2023-01-22T01:12:08.336Z,99.80
2023-01-22T01:13:08.402Z,99.60
2023-01-22T01:14:08.278Z,99.60
2023-01-22T01:15:08.308Z,99.38
2023-01-22T01:16:08.366Z,99.99
2023-01-22T01:17:08.267Z,99.70
2023-01-22T01:18:08.234Z,99.99
2023-01-22T01:19:08.242Z,99.99
2023-01-22T01:20:08.220Z,99.99
2023-01-22T01:21:08.233Z,99.70
2023-01-22T01:22:08.220Z,99.91
2023-01-22T01:23:08.179Z,99.38
2023-01-22T01:24:08.211Z,99.38
2023-01-22T01:25:08.157Z,99.49
2023-01-22T01:26:08.153Z,99.91
2023-01-22T01:27:08.164Z,99.96
2023-01-22T01:28:08.130Z,99.99
2023-01-22T01:29:08.259Z,99.38
2023-01-22T01:30:08.102Z,99.54
2023-01-22T01:31:08.195Z,99.99
2023-01-22T01:32:08.100Z,99.99
2023-01-22T01:33:08.113Z,99.99
2023-01-22T01:34:08.070Z,99.99
2023-01-22T01:35:08.046Z,99.99
2023-01-22T01:36:08.054Z,99.99
2023-01-22T01:37:08.075Z,99.99
2023-01-22T01:38:08.043Z,99.99
2023-01-22T01:39:08.032Z,99.99
2023-01-22T01:40:08.007Z,99.99
2023-01-22T01:41:07.987Z,99.99
2023-01-22T01:42:07.995Z,99.99
2023-01-22T01:43:07.972Z,99.99
2023-01-22T01:44:07.973Z,99.99
2023-01-22T01:45:08.088Z,99.99
2023-01-22T01:46:07.922Z,99.99
2023-01-22T01:47:07.916Z,99.99
2023-01-22T01:48:07.918Z,99.99
2023-01-22T01:49:07.898Z,99.99
2023-01-22T01:50:07.911Z,99.91
2023-01-22T01:51:07.959Z,99.99
2023-01-22T01:52:07.859Z,99.99
2023-01-22T01:53:07.846Z,99.91
2023-01-22T01:54:07.834Z,99.80
2023-01-22T01:55:07.852Z,99.99
2023-01-22T01:56:07.822Z,99.99
2023-01-22T01:57:07.855Z,99.99
2023-01-22T01:58:07.789Z,99.99
2023-01-22T01:59:07.779Z,99.91
2023-01-22T02:00:07.768Z,99.80
2023-01-22T02:01:08.041Z,99.99
2023-01-22T02:02:07.803Z,99.99
2023-01-22T02:03:07.778Z,99.99
2023-01-22T02:04:07.723Z,99.99
2023-01-22T02:05:07.730Z,99.99
2023-01-22T02:06:07.705Z,99.99
2023-01-22T02:07:07.691Z,99.99
2023-01-22T02:08:07.696Z,99.99
2023-01-22T02:09:07.717Z,99.99
2023-01-22T02:10:07.660Z,99.99
2023-01-22T02:11:07.683Z,99.99
2023-01-22T02:12:07.636Z,99.99
2023-01-22T02:13:07.706Z,99.99
2023-01-22T02:14:07.624Z,99.99
2023-01-22T02:15:07.602Z,99.99
2023-01-22T02:16:07.647Z,99.99
2023-01-22T02:17:07.701Z,99.99
2023-01-22T02:18:07.587Z,99.99
2023-01-22T02:19:07.596Z,99.99
2023-01-22T02:20:08.215Z,99.99
2023-01-22T02:21:07.598Z,99.99
2023-01-22T02:22:07.540Z,99.99
2023-01-22T02:23:07.527Z,99.99
2023-01-22T02:24:07.514Z,99.99
2023-01-22T02:25:07.507Z,99.99
2023-01-22T02:26:07.512Z,99.99
2023-01-22T02:27:07.504Z,99.99
2023-01-22T02:28:07.459Z,99.99
2023-01-22T02:29:07.456Z,99.99
2023-01-22T02:30:07.446Z,99.99
2023-01-22T02:31:07.518Z,99.99
2023-01-22T02:32:07.449Z,99.99
2023-01-22T02:33:07.532Z,99.99
2023-01-22T02:34:07.406Z,99.99
2023-01-22T02:35:07.393Z,99.99
2023-01-22T02:36:07.409Z,99.99
2023-01-22T02:37:07.369Z,99.99
2023-01-22T02:38:07.345Z,99.99
2023-01-22T02:39:07.362Z,99.99
2023-01-22T02:40:07.349Z,99.99
2023-01-22T02:41:07.334Z,99.99
2023-01-22T02:42:07.311Z,99.99
2023-01-22T02:43:07.318Z,99.99
2023-01-22T02:44:07.370Z,99.99
2023-01-22T02:45:07.342Z,99.99
2023-01-22T02:46:07.323Z,99.99
2023-01-22T02:47:07.252Z,99.99
2023-01-22T02:48:07.251Z,99.99
2023-01-22T02:49:07.340Z,99.99
2023-01-22T02:50:07.231Z,99.99
2023-01-22T02:51:07.239Z,99.99
2023-01-22T02:52:07.201Z,99.99
2023-01-22T02:53:07.212Z,99.99
2023-01-22T02:54:07.179Z,99.99
2023-01-22T02:55:07.197Z,99.99
2023-01-22T02:56:07.156Z,99.99
2023-01-22T02:57:07.197Z,99.99
2023-01-22T02:58:07.138Z,99.99
2023-01-22T02:59:07.152Z,99.99
2023-01-22T03:00:07.126Z,99.99
2023-01-22T03:01:07.200Z,99.99
2023-01-22T03:02:07.170Z,99.99
2023-01-22T03:03:07.070Z,99.99
2023-01-22T03:04:07.103Z,99.99
2023-01-22T03:05:07.172Z,99.99
2023-01-22T03:06:07.070Z,99.99
2023-01-22T03:07:07.062Z,99.99
2023-01-22T03:08:07.014Z,99.99
2023-01-22T03:09:07.008Z,99.99
2023-01-22T03:10:07.036Z,99.99
2023-01-22T03:11:06.997Z,99.99
2023-01-22T03:12:07.007Z,99.99
2023-01-22T03:13:06.965Z,99.99
2023-01-22T03:14:06.949Z,99.99
2023-01-22T03:15:06.944Z,99.99
2023-01-22T03:16:06.974Z,99.99
2023-01-22T03:17:06.938Z,99.99
2023-01-22T03:18:06.942Z,99.99
2023-01-22T03:19:06.912Z,99.99
2023-01-22T03:20:06.883Z,99.99
2023-01-22T03:21:06.996Z,99.99
2023-01-22T03:22:06.917Z,99.99
2023-01-22T03:23:06.873Z,99.99
2023-01-22T03:24:06.841Z,99.99
2023-01-22T03:25:06.845Z,99.99
2023-01-22T03:26:06.825Z,99.99
2023-01-22T03:27:06.833Z,99.99
2023-01-22T03:28:06.853Z,99.99
2023-01-22T03:29:06.803Z,99.99
2023-01-22T03:30:06.791Z,99.99
2023-01-22T03:31:06.836Z,99.99
2023-01-22T03:32:06.832Z,99.99
2023-01-22T03:33:06.743Z,99.99
2023-01-22T03:34:06.767Z,99.99
2023-01-22T03:35:06.738Z,99.99
2023-01-22T03:36:06.725Z,99.99
2023-01-22T03:37:06.848Z,99.99
2023-01-22T03:38:06.709Z,99.99
2023-01-22T03:39:06.684Z,99.99
2023-01-22T03:40:06.676Z,99.99
2023-01-22T03:41:06.696Z,99.99
2023-01-22T03:42:06.662Z,99.99
2023-01-22T03:43:06.668Z,99.99
2023-01-22T03:44:06.629Z,99.99
2023-01-22T03:45:06.614Z,99.99
2023-01-22T03:46:06.646Z,99.99
2023-01-22T03:47:06.646Z,99.99
2023-01-22T03:48:06.589Z,99.99
2023-01-22T03:49:06.566Z,99.99
2023-01-22T03:50:06.566Z,99.99
2023-01-22T03:51:06.597Z,99.99
2023-01-22T03:52:06.553Z,99.99
2023-01-22T03:53:06.695Z,99.99
2023-01-22T03:54:06.511Z,99.99
2023-01-22T03:55:06.497Z,99.99
2023-01-22T03:56:06.487Z,99.99
2023-01-22T03:57:06.497Z,99.99
2023-01-22T03:58:06.486Z,99.99
2023-01-22T03:59:06.530Z,99.99
2023-01-22T04:00:06.445Z,99.99
2023-01-22T04:01:06.502Z,99.99
2023-01-22T04:02:06.461Z,99.99
2023-01-22T04:03:06.433Z,99.99
2023-01-22T04:04:06.425Z,99.99
2023-01-22T04:05:06.457Z,99.99
2023-01-22T04:06:06.395Z,99.99
2023-01-22T04:07:06.387Z,99.99
2023-01-22T04:08:06.360Z,99.99
2023-01-22T04:09:06.479Z,99.99
2023-01-22T04:10:06.368Z,99.99
2023-01-22T04:11:06.390Z,99.99
2023-01-22T04:12:06.314Z,99.99
2023-01-22T04:13:06.322Z,99.99
2023-01-22T04:14:06.303Z,99.99
2023-01-22T04:15:06.296Z,99.99
2023-01-22T04:16:06.272Z,99.99
2023-01-22T04:17:06.343Z,99.99
2023-01-22T04:18:06.252Z,99.99
2023-01-22T04:19:06.250Z,99.99
2023-01-22T04:20:06.242Z,99.99
2023-01-22T04:21:06.272Z,99.99
2023-01-22T04:22:06.237Z,99.99
2023-01-22T04:23:06.248Z,99.99
2023-01-22T04:24:06.184Z,99.99
2023-01-22T04:25:06.319Z,99.99
2023-01-22T04:26:06.187Z,99.99
2023-01-22T04:27:06.145Z,99.99
2023-01-22T04:28:06.150Z,99.99
2023-01-22T04:29:06.147Z,99.99
2023-01-22T04:30:06.152Z,99.99
2023-01-22T04:31:06.310Z,99.99
2023-01-22T04:32:06.101Z,99.99
2023-01-22T04:33:06.087Z,99.99
2023-01-22T04:34:06.076Z,99.99
2023-01-22T04:35:06.174Z,99.99
2023-01-22T04:36:06.100Z,99.99
2023-01-22T04:37:06.071Z,99.99
2023-01-22T04:38:06.037Z,99.99
2023-01-22T04:39:06.019Z,99.99
2023-01-22T04:40:06.018Z,99.99
2023-01-22T04:41:06.139Z,99.99
2023-01-22T04:42:06.069Z,99.99
2023-01-22T04:43:05.989Z,99.99
2023-01-22T04:44:05.983Z,99.99
2023-01-22T04:45:05.949Z,99.99
2023-01-22T04:46:05.981Z,99.99
2023-01-22T04:47:05.961Z,99.99
2023-01-22T04:48:05.953Z,99.99
2023-01-22T04:49:05.927Z,99.99
2023-01-22T04:50:05.918Z,99.99
2023-01-22T04:51:05.977Z,99.99
2023-01-22T04:52:05.876Z,99.99
2023-01-22T04:53:05.876Z,99.99
2023-01-22T04:54:05.867Z,99.99
2023-01-22T04:55:05.863Z,99.99
2023-01-22T04:56:05.857Z,99.99
2023-01-22T04:57:05.964Z,99.99
2023-01-22T04:58:05.827Z,99.99
2023-01-22T04:59:05.807Z,99.99
2023-01-22T05:00:05.813Z,99.99
2023-01-22T05:01:05.810Z,99.99
2023-01-22T05:02:05.836Z,99.99
2023-01-22T05:03:05.753Z,99.99
2023-01-22T05:04:05.741Z,99.99
2023-01-22T05:05:05.756Z,99.99
2023-01-22T05:06:05.742Z,99.99
2023-01-22T05:07:05.722Z,99.99
2023-01-22T05:08:05.695Z,99.99
2023-01-22T05:09:05.690Z,99.99
2023-01-22T05:10:05.676Z,99.99
2023-01-22T05:11:05.711Z,99.99
2023-01-22T05:12:06.683Z,99.99
2023-01-22T05:13:05.819Z,99.99
2023-01-22T05:14:05.629Z,99.99
2023-01-22T05:15:15.046Z,99.99
2023-01-22T05:16:06.653Z,99.99
2023-01-22T05:17:05.599Z,99.99
2023-01-22T05:18:05.616Z,99.99
2023-01-22T05:19:05.578Z,99.99
2023-01-22T05:20:05.619Z,99.99
2023-01-22T05:21:05.553Z,99.99
2023-01-22T05:22:05.563Z,99.99
2023-01-22T05:23:05.537Z,99.99
2023-01-22T05:24:05.585Z,99.99
2023-01-22T05:25:05.506Z,99.99
2023-01-22T05:26:05.513Z,99.99
2023-01-22T05:27:05.483Z,99.99
2023-01-22T05:28:05.496Z,99.99
2023-01-22T05:29:05.600Z,99.99
2023-01-22T05:30:05.500Z,99.99
2023-01-22T05:31:05.564Z,99.99
2023-01-22T05:32:05.438Z,99.99
2023-01-22T05:33:05.421Z,99.99
2023-01-22T05:34:05.414Z,99.99
2023-01-22T05:35:05.414Z,99.99
2023-01-22T05:36:05.472Z,99.99
2023-01-22T05:37:05.415Z,99.99
2023-01-22T05:38:05.364Z,99.99
2023-01-22T05:39:05.363Z,99.99
2023-01-22T05:40:05.386Z,99.99
2023-01-22T05:41:05.339Z,99.99
2023-01-22T05:42:05.393Z,99.99
2023-01-22T05:43:05.324Z,99.99
2023-01-22T05:44:05.299Z,99.99
2023-01-22T05:45:05.422Z,99.99
2023-01-22T05:46:05.297Z,99.99
2023-01-22T05:47:05.285Z,99.99
2023-01-22T05:48:05.322Z,99.99
2023-01-22T05:49:05.296Z,99.99
2023-01-22T05:50:05.233Z,99.99
2023-01-22T05:51:05.247Z,99.99
2023-01-22T05:52:05.222Z,99.99
2023-01-22T05:53:05.229Z,99.99
2023-01-22T05:54:05.238Z,99.99
2023-01-22T05:55:05.181Z,99.99
2023-01-22T05:56:05.170Z,99.99
2023-01-22T05:57:05.155Z,99.99
2023-01-22T05:58:06.414Z,99.99
2023-01-22T05:59:05.163Z,99.99
2023-01-22T06:00:05.179Z,99.99
2023-01-22T06:01:10.169Z,99.99
2023-01-22T06:02:06.233Z,99.99
2023-01-22T06:03:05.105Z,99.99
2023-01-22T06:04:05.087Z,99.99
2023-01-22T06:05:13.266Z,99.99
2023-01-22T06:06:05.081Z,99.99
2023-01-22T06:07:05.093Z,99.99
2023-01-22T06:08:05.051Z,99.99
2023-01-22T06:09:05.026Z,99.99
2023-01-22T06:10:05.041Z,99.99
2023-01-22T06:11:05.015Z,99.99
2023-01-22T06:12:05.015Z,99.99
2023-01-22T06:13:05.030Z,99.99
2023-01-22T06:14:05.001Z,99.99
2023-01-22T06:15:04.960Z,99.99
2023-01-22T06:16:05.021Z,99.99
2023-01-22T06:17:04.967Z,99.99
2023-01-22T06:18:05.096Z,99.99
2023-01-22T06:19:04.923Z,99.99
2023-01-22T06:20:04.915Z,99.99
2023-01-22T06:21:04.911Z,99.99
2023-01-22T06:22:04.882Z,99.99
2023-01-22T06:23:05.782Z,99.99
2023-01-22T06:24:28.992Z,99.99
2023-01-22T06:25:09.516Z,99.99
2023-01-22T06:26:11.129Z,99.99
2023-01-22T06:27:33.877Z,99.99
2023-01-22T06:28:24.139Z,99.99
2023-01-22T06:29:26.511Z,99.99
2023-01-22T06:30:08.423Z,99.99
2023-01-22T06:31:08.481Z,99.99
2023-01-22T06:32:30.575Z,99.99
2023-01-22T06:33:07.419Z,99.99
2023-01-22T06:34:11.837Z,99.99
2023-01-22T06:35:38.739Z,99.99
2023-01-22T06:36:05.863Z,99.99
2023-01-22T06:37:14.484Z,99.99
2023-01-22T06:39:14.481Z,99.99
2023-01-22T06:40:14.444Z,99.99
2023-01-22T06:41:14.453Z,99.99
2023-01-22T06:42:14.405Z,99.99
2023-01-22T06:43:14.403Z,99.99
2023-01-22T06:44:14.393Z,99.99
2023-01-22T06:45:14.390Z,99.99
2023-01-22T06:46:14.458Z,99.99
2023-01-22T06:47:14.365Z,99.99
2023-01-22T06:48:14.348Z,99.99
2023-01-22T06:49:14.365Z,99.99
2023-01-22T06:50:14.472Z,99.99
2023-01-22T06:51:14.364Z,99.99
2023-01-22T06:52:14.345Z,99.57
2023-01-22T06:53:14.283Z,99.73
2023-01-22T06:54:14.305Z,99.57
2023-01-22T06:55:14.263Z,99.99
2023-01-22T06:56:14.259Z,99.99
2023-01-22T06:57:14.269Z,99.99
2023-01-22T06:58:14.275Z,99.99
2023-01-22T06:59:14.239Z,99.99
2023-01-22T07:00:14.249Z,99.99
2023-01-22T07:01:14.200Z,99.99
2023-01-22T07:02:14.197Z,99.88
2023-01-22T07:03:14.204Z,99.67
2023-01-22T07:04:14.201Z,99.67
2023-01-22T07:05:14.154Z,99.99
2023-01-22T07:06:14.290Z,99.99
2023-01-22T07:07:14.135Z,99.99
2023-01-22T07:08:14.138Z,99.99
2023-01-22T07:09:14.143Z,99.99
2023-01-22T07:10:14.107Z,99.99
2023-01-22T07:11:14.087Z,99.99
2023-01-22T07:12:14.108Z,99.99
2023-01-22T07:13:14.102Z,99.99
2023-01-22T07:14:14.080Z,99.99
2023-01-22T07:15:14.082Z,99.99
2023-01-22T07:16:14.105Z,99.99
2023-01-22T07:17:14.027Z,99.99
2023-01-22T07:18:14.041Z,99.99
2023-01-22T07:19:14.028Z,99.99
2023-01-22T07:20:14.024Z,99.99
2023-01-22T07:21:13.995Z,99.99
2023-01-22T07:22:14.080Z,99.99
2023-01-22T07:23:13.959Z,99.99
2023-01-22T07:24:13.980Z,99.99
2023-01-22T07:25:13.967Z,99.99
2023-01-22T07:26:13.945Z,99.99
2023-01-22T07:27:13.949Z,99.99
2023-01-22T07:28:13.903Z,99.99
2023-01-22T07:29:13.893Z,99.99
2023-01-22T07:30:13.930Z,99.99
2023-01-22T07:31:14.068Z,99.99
2023-01-22T07:32:13.882Z,99.99
2023-01-22T07:33:13.852Z,99.99
2023-01-22T07:34:13.850Z,99.99
2023-01-22T07:35:13.828Z,99.99
2023-01-22T07:36:13.854Z,99.99
2023-01-22T07:37:13.821Z,99.95
2023-01-22T07:38:13.943Z,99.99
2023-01-22T07:39:13.785Z,99.99
2023-01-22T07:40:13.769Z,99.99
2023-01-22T07:41:25.087Z,99.99
2023-01-22T07:42:14.782Z,99.99
2023-01-22T07:43:13.756Z,99.99
2023-01-22T07:44:13.762Z,99.99
2023-01-22T07:45:13.716Z,99.99
2023-01-22T07:46:13.711Z,99.99
2023-01-22T07:47:13.705Z,99.99
2023-01-22T07:48:13.738Z,99.99
2023-01-22T07:49:13.688Z,99.99
2023-01-22T07:50:13.659Z,99.99
2023-01-22T07:51:13.751Z,99.99
2023-01-22T07:52:13.639Z,99.99
2023-01-22T07:53:13.667Z,99.69
2023-01-22T07:54:13.789Z,99.96
2023-01-22T07:55:13.626Z,99.58
2023-01-22T07:56:13.593Z,99.43
2023-01-22T07:57:13.602Z,99.69
2023-01-22T07:58:13.571Z,99.69
2023-01-22T07:59:13.598Z,99.22
2023-01-22T08:00:13.597Z,99.85
2023-01-22T08:01:13.636Z,99.99
2023-01-22T08:02:13.674Z,99.96
2023-01-22T08:03:13.529Z,98.74
2023-01-22T08:04:13.505Z,98.91
2023-01-22T08:05:13.556Z,98.95
2023-01-22T08:06:13.509Z,99.05
2023-01-22T08:07:13.471Z,99.00
2023-01-22T08:08:13.461Z,99.99
2023-01-22T08:09:13.456Z,99.95
2023-01-22T08:10:13.577Z,99.63
2023-01-22T08:11:13.465Z,99.73
2023-01-22T08:12:13.432Z,99.99
2023-01-22T08:13:13.445Z,99.63
2023-01-22T08:14:13.392Z,99.63
2023-01-22T08:15:13.402Z,99.63
2023-01-22T08:16:13.410Z,99.99
2023-01-22T08:17:13.481Z,99.99
2023-01-22T08:18:13.369Z,99.63
2023-01-22T08:19:13.359Z,99.99
2023-01-22T08:20:13.341Z,99.99
2023-01-22T08:21:13.321Z,99.99
2023-01-22T08:22:13.308Z,99.99
2023-01-22T08:23:13.332Z,99.99
2023-01-22T08:24:13.311Z,99.63
2023-01-22T08:25:13.290Z,99.48
2023-01-22T08:26:13.379Z,99.99
2023-01-22T08:27:13.259Z,99.79
2023-01-22T08:28:13.261Z,99.58
2023-01-22T08:29:13.272Z,99.58
2023-01-22T08:30:13.262Z,99.99
2023-01-22T08:31:26.400Z,99.05
2023-01-22T08:32:14.244Z,99.90
2023-01-22T08:33:13.196Z,99.99
2023-01-22T08:34:13.180Z,99.58
2023-01-22T08:35:13.179Z,99.69
2023-01-22T08:36:13.198Z,99.99
2023-01-22T08:37:13.150Z,99.37
2023-01-22T08:38:13.124Z,99.16
2023-01-22T08:39:13.124Z,98.85
2023-01-22T08:40:13.121Z,99.05
2023-01-22T08:41:13.116Z,98.80
2023-01-22T08:42:13.196Z,99.33
2023-01-22T08:43:13.086Z,99.33
2023-01-22T08:44:13.073Z,99.43
2023-01-22T08:45:13.091Z,99.54
2023-01-22T08:46:13.123Z,99.54
2023-01-22T08:47:13.026Z,99.54
2023-01-22T08:48:13.065Z,99.64
2023-01-22T08:49:13.011Z,99.43
2023-01-22T08:50:13.004Z,99.99
2023-01-22T08:51:13.137Z,99.80
2023-01-22T08:52:12.999Z,99.99
2023-01-22T08:53:12.961Z,99.54
2023-01-22T08:54:12.961Z,99.07
2023-01-22T08:55:12.942Z,98.97
2023-01-22T08:56:12.957Z,99.01
2023-01-22T08:57:12.952Z,98.75
2023-01-22T08:58:13.027Z,98.69
2023-01-22T08:59:12.895Z,98.65
2023-01-22T09:00:12.953Z,98.80
2023-01-22T09:01:12.904Z,99.11
2023-01-22T09:02:12.927Z,98.59
2023-01-22T09:03:12.872Z,99.28
2023-01-22T09:04:12.876Z,98.69
2023-01-22T09:05:12.833Z,98.75
2023-01-22T09:06:12.834Z,98.65
2023-01-22T09:07:12.818Z,98.55
2023-01-22T09:08:12.821Z,98.38
2023-01-22T09:09:12.794Z,98.69
2023-01-22T09:10:12.782Z,99.28
2023-01-22T09:11:12.781Z,99.43
2023-01-22T09:12:12.778Z,99.01
2023-01-22T09:13:12.753Z,99.01
2023-01-22T09:14:12.893Z,98.97
2023-01-22T09:15:12.734Z,99.07
2023-01-22T09:16:12.757Z,98.44
2023-01-22T09:17:12.706Z,99.07
2023-01-22T09:18:12.708Z,99.28
2023-01-22T09:19:12.681Z,98.75
2023-01-22T09:20:12.698Z,98.55
2023-01-22T09:21:12.680Z,98.65
2023-01-22T09:22:12.646Z,98.34
2023-01-22T09:23:15.353Z,98.75
2023-01-22T09:24:12.646Z,98.65
2023-01-22T09:25:12.643Z,98.13
2023-01-22T09:26:12.613Z,98.34
2023-01-22T09:27:12.617Z,97.81
2023-01-22T09:28:12.576Z,97.92
2023-01-22T09:29:12.569Z,97.60
2023-01-22T09:30:18.337Z,97.86
2023-01-22T09:31:13.663Z,97.81
2023-01-22T09:32:12.558Z,97.60
2023-01-22T09:33:12.562Z,98.23
2023-01-22T09:34:12.509Z,98.34
2023-01-22T09:35:12.501Z,98.02
2023-01-22T09:36:12.519Z,97.71
2023-01-22T09:37:12.481Z,97.60
2023-01-22T09:38:12.502Z,97.87
2023-01-22T09:39:12.454Z,98.23
2023-01-22T09:40:12.446Z,97.77
2023-01-22T09:41:12.453Z,97.98
2023-01-22T09:42:12.466Z,97.98
2023-01-22T09:43:12.419Z,97.92
2023-01-22T09:44:12.420Z,98.19
2023-01-22T09:45:12.398Z,97.56
2023-01-22T09:46:12.441Z,97.24
2023-01-22T09:47:12.481Z,96.77
2023-01-22T09:48:12.389Z,96.83
2023-01-22T09:49:12.360Z,96.61
2023-01-22T09:50:12.371Z,96.93
2023-01-22T09:51:12.356Z,97.56
2023-01-22T09:52:12.314Z,97.77
2023-01-22T09:53:12.332Z,97.72
2023-01-22T09:54:12.315Z,97.66
2023-01-22T09:55:12.300Z,97.03
2023-01-22T09:56:12.268Z,97.14
2023-01-22T09:57:19.843Z,96.89
2023-01-22T09:58:13.260Z,96.78
2023-01-22T09:59:12.236Z,96.25
2023-01-22T10:00:12.255Z,96.36
2023-01-22T10:01:12.273Z,96.67
2023-01-22T10:02:12.219Z,96.78
2023-01-22T10:03:12.302Z,96.83
2023-01-22T10:04:12.177Z,96.93
2023-01-22T10:05:12.192Z,96.99
2023-01-22T10:06:12.185Z,96.83
2023-01-22T10:07:12.164Z,96.67
2023-01-22T10:08:12.136Z,96.83
2023-01-22T10:09:12.683Z,97.66
2023-01-22T10:10:12.110Z,97.71
2023-01-22T10:11:12.128Z,97.60
2023-01-22T10:12:12.166Z,98.13
2023-01-22T10:13:12.100Z,98.19
2023-01-22T10:14:12.081Z,97.87
2023-01-22T10:15:12.063Z,97.66
2023-01-22T10:16:12.054Z,97.45
2023-01-22T10:17:12.036Z,97.87
2023-01-22T10:18:12.028Z,97.87
2023-01-22T10:19:12.145Z,97.93
2023-01-22T10:20:12.017Z,97.83
2023-01-22T10:21:11.996Z,97.72
2023-01-22T10:22:11.998Z,97.72
2023-01-22T10:23:11.972Z,97.72
2023-01-22T10:24:11.969Z,97.16
2023-01-22T10:25:11.991Z,96.63
2023-01-22T10:26:13.801Z,96.53
2023-01-22T10:27:11.954Z,96.11
2023-01-22T10:28:11.927Z,96.21
2023-01-22T10:29:11.914Z,96.17
2023-01-22T10:30:11.911Z,96.37
2023-01-22T10:31:11.994Z,96.06
2023-01-22T10:32:13.911Z,96.02
2023-01-22T10:33:11.859Z,95.39
2023-01-22T10:34:11.877Z,95.70
2023-01-22T10:35:11.983Z,95.07
2023-01-22T10:36:11.846Z,94.76
2023-01-22T10:37:11.823Z,94.66
2023-01-22T10:38:11.820Z,94.76
2023-01-22T10:39:11.840Z,95.50
2023-01-22T10:40:11.782Z,96.06
2023-01-22T10:41:11.776Z,94.97
2023-01-22T10:42:11.783Z,94.87
2023-01-22T10:43:11.750Z,94.97
2023-01-22T10:44:11.809Z,94.56
2023-01-22T10:45:11.746Z,95.07
2023-01-22T10:46:11.860Z,94.76
2023-01-22T10:47:11.715Z,95.39
2023-01-22T10:48:11.695Z,95.07
2023-01-22T10:49:11.700Z,94.87
2023-01-22T10:50:11.701Z,95.07
2023-01-22T10:51:11.886Z,94.66
2023-01-22T10:52:11.665Z,95.60
2023-01-22T10:53:11.685Z,95.39
2023-01-22T10:54:11.626Z,95.35
2023-01-22T10:55:11.626Z,95.35
2023-01-22T10:56:12.567Z,95.25
2023-01-22T10:57:11.622Z,95.39
2023-01-22T10:58:11.599Z,95.50
2023-01-22T10:59:11.599Z,94.76
2023-01-22T11:00:11.559Z,94.87
2023-01-22T11:01:11.688Z,95.29
2023-01-22T11:02:11.652Z,95.39
2023-01-22T11:03:11.533Z,95.29
2023-01-22T11:04:11.540Z,95.39
2023-01-22T11:05:11.503Z,95.07
2023-01-22T11:06:11.491Z,95.18
2023-01-22T11:07:17.421Z,95.39
2023-01-22T11:08:12.629Z,95.70
2023-01-22T11:09:11.468Z,95.60
2023-01-22T11:10:11.468Z,95.81
2023-01-22T11:11:11.438Z,96.23
2023-01-22T11:12:11.422Z,95.29
2023-01-22T11:13:11.446Z,95.29
2023-01-22T11:14:11.431Z,95.18
2023-01-22T11:15:11.406Z,95.56
2023-01-22T11:16:11.438Z,95.66
2023-01-22T11:17:11.383Z,95.60
2023-01-22T11:18:11.384Z,95.56
2023-01-22T11:19:11.382Z,95.25
2023-01-22T11:20:11.336Z,95.62
2023-01-22T11:21:11.332Z,95.35
2023-01-22T11:22:11.343Z,94.36
2023-01-22T11:23:11.303Z,94.40
2023-01-22T11:24:11.402Z,94.36
2023-01-22T11:25:11.323Z,94.78
2023-01-22T11:26:11.273Z,94.46
2023-01-22T11:27:11.287Z,94.36
2023-01-22T11:28:11.245Z,93.95
2023-01-22T11:29:11.233Z,94.09
2023-01-22T11:30:11.252Z,93.36
2023-01-22T11:31:11.310Z,94.51
2023-01-22T11:32:11.215Z,93.88
2023-01-22T11:33:11.218Z,94.40
2023-01-22T11:34:11.177Z,94.40
2023-01-22T11:35:11.163Z,95.03
2023-01-22T11:36:11.170Z,94.82
2023-01-22T11:37:11.190Z,95.56
2023-01-22T11:38:11.149Z,94.40
2023-01-22T11:39:11.121Z,94.62
2023-01-22T11:40:11.267Z,94.09
2023-01-22T11:41:11.101Z,94.30
2023-01-22T11:42:11.108Z,94.09
2023-01-22T11:43:11.141Z,94.34
2023-01-22T11:44:11.081Z,94.40
2023-01-22T11:45:11.056Z,94.56
2023-01-22T11:46:11.096Z,94.97
2023-01-22T11:47:11.042Z,94.93
2023-01-22T11:48:11.086Z,95.66
2023-01-22T11:49:11.023Z,94.87
2023-01-22T11:50:11.041Z,94.82
2023-01-22T11:51:11.007Z,95.14
2023-01-22T11:52:10.977Z,95.39
2023-01-22T11:53:10.995Z,95.03
2023-01-22T11:54:12.138Z,95.25
2023-01-22T11:55:10.958Z,95.66
2023-01-22T11:56:11.085Z,94.72
2023-01-22T11:57:10.945Z,94.93
2023-01-22T11:58:10.916Z,94.72
2023-01-22T11:59:10.929Z,94.51
2023-01-22T12:00:10.891Z,94.93
2023-01-22T12:01:10.883Z,95.83
2023-01-22T12:02:10.913Z,94.36
2023-01-22T12:03:10.852Z,94.89
2023-01-22T12:04:10.918Z,94.46
2023-01-22T12:05:10.860Z,93.95
2023-01-22T12:06:10.860Z,94.46
2023-01-22T12:07:10.825Z,93.59
2023-01-22T12:08:10.829Z,94.32
2023-01-22T12:09:10.834Z,94.68
2023-01-22T12:10:10.776Z,94.15
2023-01-22T12:11:10.762Z,93.21
2023-01-22T12:12:10.890Z,94.01
2023-01-22T12:13:10.760Z,93.27
2023-01-22T12:14:10.829Z,94.32
2023-01-22T12:15:10.737Z,94.32
2023-01-22T12:16:10.797Z,93.70
2023-01-22T12:17:10.706Z,94.49
2023-01-22T12:18:10.692Z,93.23
2023-01-22T12:19:10.673Z,93.65
2023-01-22T12:20:10.687Z,93.96
2023-01-22T12:21:10.699Z,93.38
2023-01-22T12:22:10.681Z,93.59
2023-01-22T12:23:10.638Z,92.96
2023-01-22T12:24:10.747Z,93.27
2023-01-22T12:25:10.609Z,94.11
2023-01-22T12:26:10.598Z,93.65
2023-01-22T12:27:12.363Z,93.59
2023-01-22T12:28:10.707Z,94.07
2023-01-22T12:29:10.580Z,94.27
2023-01-22T12:30:10.592Z,94.07
2023-01-22T12:31:10.708Z,93.65
2023-01-22T12:32:10.532Z,93.59
2023-01-22T12:33:10.520Z,93.96
2023-01-22T12:34:10.520Z,93.48
2023-01-22T12:35:10.516Z,93.38
2023-01-22T12:36:10.484Z,93.48
2023-01-22T12:37:10.472Z,93.13
2023-01-22T12:38:12.261Z,93.65
2023-01-22T12:39:10.487Z,93.13
2023-01-22T12:40:10.483Z,92.96
2023-01-22T12:41:10.450Z,93.70
2023-01-22T12:42:10.417Z,93.59
2023-01-22T12:43:10.404Z,93.48
2023-01-22T12:44:10.664Z,93.38
2023-01-22T12:45:10.406Z,94.32
2023-01-22T12:46:10.436Z,93.59
2023-01-22T12:47:10.388Z,95.05
2023-01-22T12:48:10.385Z,93.76
2023-01-22T12:49:10.338Z,93.33
2023-01-22T12:50:10.343Z,94.07
2023-01-22T12:51:10.373Z,94.49
2023-01-22T12:52:10.343Z,93.76
2023-01-22T12:53:10.295Z,93.96